Time;durP1;ratioP1;P1;durP2;ratioP2;P2;SDS_P1;SDS_P2;PMS_P1;PMS_P2;Temp;Humidity;BMP_temperature;BMP_pressure;BME280_temperature;BME280_humidity;BME280_pressure;Samples;Min_cycle;Max_cycle;Signal;HPM_P1;HPM_P2
2021/08/01 00:01:36;;;;;;;;;;;;;;;21.76;60.29;100327.31;5159616;27;866;-40
2021/08/01 00:04:01;;;;;;;;;;;;;;;21.57;57.32;100323.97;5159498;27;1909;-45
2021/08/01 00:06:27;;;;;;;;;;;;;;;20.62;57.16;100322.97;5159616;27;1190;-50
2021/08/01 00:08:52;;;;;;;;;;;;;;;20.80;57.71;100326.72;5159834;27;786;-53
2021/08/01 00:11:18;;;;;;;;;;;;;;;21.09;55.84;100325.47;5158774;27;1068;-41
2021/08/01 00:13:43;;;;;;;;;;;;;;;21.32;55.33;100326.25;5140894;27;843;-52
2021/08/01 00:16:08;;;;;;;;;;;;;;;21.37;55.48;100326.13;5159607;27;824;-40
2021/08/01 00:18:34;;;;;;;;;;;;;;;21.57;55.77;100337.81;5159472;27;762;-53
2021/08/01 00:20:59;;;;;;;;;;;;;;;21.52;56.68;100333.25;5159357;27;747;-40
2021/08/01 00:23:25;;;;;;;;;;;;;;;21.53;57.30;100332.09;5159474;27;1902;-49
2021/08/01 00:25:50;;;;;;;;;;;;;;;21.24;58.46;100332.53;5159236;27;802;-53
2021/08/01 00:28:16;;;;;;;;;;;;;;;21.44;57.72;100334.78;5158939;27;1000;-51
2021/08/01 00:30:42;;;;;;;;;;;;;;;20.98;56.83;100338.72;5159296;27;747;-46
2021/08/01 00:33:08;;;;;;;;;;;;;;;20.94;59.46;100346.81;5158976;27;754;-43
2021/08/01 00:35:33;;;;;;;;;;;;;;;21.43;58.91;100349.72;5159317;27;750;-50
2021/08/01 00:38:01;;;;;;;;;;;;;;;21.46;58.69;100349.13;5159387;27;839;-49
2021/08/01 00:40:27;;;;;;;;;;;;;;;21.62;58.21;100349.56;5158922;27;830;-39
2021/08/01 00:42:52;;;;;;;;;;;;;;;21.80;57.41;100352.41;5158031;27;1933;-51
2021/08/01 00:45:18;;;;;;;;;;;;;;;21.60;58.18;100353.75;5158501;27;801;-52
2021/08/01 00:47:43;;;;;;;;;;;;;;;21.44;58.49;100345.84;5158931;27;794;-52
2021/08/01 00:50:09;;;;;;;;;;;;;;;21.24;56.82;100351.91;5159185;27;894;-45
2021/08/01 00:52:36;;;;;;;;;;;;;;;20.99;58.88;100355.00;5140500;27;1291;-45
2021/08/01 00:55:11;;;;;;;;;;;;;;;21.39;59.13;100372.81;5140147;27;1153;-47
2021/08/01 00:57:38;;;;;;;;;;;;;;;21.78;57.58;100372.06;5158537;27;1001;-41
2021/08/01 01:00:05;;;;;;;;;;;;;;;21.98;57.00;100364.34;5140281;27;1263;-39
2021/08/01 01:02:37;;;;;;;;;;;;;;;22.11;56.57;100363.41;5158336;27;1913;-53
2021/08/01 01:05:06;;;;;;;;;;;;;;;21.60;58.01;100342.69;5159120;27;1005;-53
2021/08/01 01:07:37;;;;;;;;;;;;;;;21.50;58.41;100344.59;5158130;27;782;-47
2021/08/01 01:10:10;;;;;;;;;;;;;;;21.16;57.13;100357.06;5140438;27;1389;-54
2021/08/01 01:12:46;;;;;;;;;;;;;;;20.97;58.99;100356.44;5139580;27;1284;-50
2021/08/01 01:15:32;;;;;;;;;;;;;;;21.14;60.33;100358.50;5140590;27;764;-53
2021/08/01 01:17:57;;;;;;;;;;;;;;;21.65;57.94;100350.88;5157839;27;1276;-52
2021/08/01 01:20:23;;;;;;;;;;;;;;;21.38;56.93;100341.59;5139277;27;780;-53
2021/08/01 01:23:00;;;;;;;;;;;;;;;21.27;55.47;100343.00;5139727;27;1971;-39
2021/08/01 01:26:16;;;;;;;;;;;;;;;20.93;53.96;100336.09;5062468;28;1224;-51
2021/08/01 01:28:47;;;;;;;;;;;;;;;20.73;52.98;100331.88;5074386;28;818;-53
2021/08/01 01:31:16;;;;;;;;;;;;;;;21.14;51.69;100333.63;5102460;28;963;-53
2021/08/01 01:33:43;;;;;;;;;;;;;;;20.72;51.67;100330.22;5138678;27;1524;-53
2021/08/01 01:36:09;;;;;;;;;;;;;;;20.75;52.39;100321.31;5153713;27;778;-39
2021/08/01 01:38:34;;;;;;;;;;;;;;;21.05;54.23;100321.72;5142540;27;1125;-49
2021/08/01 01:41:34;;;;;;;;;;;;;;;21.32;55.56;100320.72;5141809;27;1365;-51
2021/08/01 01:44:04;;;;;;;;;;;;;;;21.54;56.24;100322.66;5139970;27;1979;-54
2021/08/01 01:46:30;;;;;;;;;;;;;;;21.53;57.21;100326.56;5139529;27;1226;-39
2021/08/01 01:48:55;;;;;;;;;;;;;;;21.48;58.11;100327.47;5122622;27;1318;-51
2021/08/01 01:51:21;;;;;;;;;;;;;;;21.41;57.37;100329.91;5157838;27;870;-41
2021/08/01 01:53:46;;;;;;;;;;;;;;;20.97;56.74;100326.88;5157868;27;833;-52
2021/08/01 01:56:13;;;;;;;;;;;;;;;21.15;59.54;100333.34;5157276;27;941;-51
2021/08/01 01:58:38;;;;;;;;;;;;;;;21.49;60.44;100323.59;5161455;27;734;-52
2021/08/01 02:01:04;;;;;;;;;;;;;;;21.60;60.15;100321.41;5143080;27;993;-40
2021/08/01 02:03:29;;;;;;;;;;;;;;;21.94;59.12;100330.16;5161675;27;1971;-40
2021/08/01 02:06:12;;;;;;;;;;;;;;;21.86;58.46;100334.50;5162046;27;1029;-43
2021/08/01 02:08:55;;;;;;;;;;;;;;;21.42;58.56;100326.00;5144054;27;1141;-53
2021/08/01 02:11:57;;;;;;;;;;;;;;;20.91;55.93;100319.81;5138685;27;1236;-39
2021/08/01 02:14:55;;;;;;;;;;;;;;;20.72;56.70;100333.00;5161911;27;853;-49
2021/08/01 02:17:26;;;;;;;;;;;;;;;20.89;54.87;100324.84;5161780;27;854;-45
2021/08/01 02:19:53;;;;;;;;;;;;;;;20.94;53.52;100333.00;5143944;27;802;-49
2021/08/01 02:22:18;;;;;;;;;;;;;;;20.79;53.29;100331.44;5161739;27;1983;-43
2021/08/01 02:24:43;;;;;;;;;;;;;;;20.97;53.03;100332.41;5142946;27;1351;-49
2021/08/01 02:27:10;;;;;;;;;;;;;;;21.04;53.56;100337.47;5143128;27;1105;-40
2021/08/01 02:29:36;;;;;;;;;;;;;;;21.17;54.54;100331.06;5143715;27;812;-50
2021/08/01 02:32:02;;;;;;;;;;;;;;;21.32;55.25;100340.06;5161347;27;846;-44
2021/08/01 02:34:32;;;;;;;;;;;;;;;21.47;55.70;100342.44;5126428;27;1485;-46
2021/08/01 02:36:59;;;;;;;;;;;;;;;21.69;55.68;100347.13;5143281;27;1466;-41
2021/08/01 02:39:24;;;;;;;;;;;;;;;21.52;56.59;100350.66;5161061;27;749;-51
2021/08/01 02:41:50;;;;;;;;;;;;;;;21.49;57.25;100345.72;5122034;27;1412;-39
2021/08/01 02:44:23;;;;;;;;;;;;;;;21.15;56.55;100344.41;5106155;27;1970;-49
2021/08/01 02:46:49;;;;;;;;;;;;;;;20.70;58.58;100355.41;5122112;27;1327;-40
2021/08/01 02:49:16;;;;;;;;;;;;;;;21.27;59.02;100362.34;5122282;27;1128;-42
2021/08/01 02:51:41;;;;;;;;;;;;;;;21.57;58.40;100363.50;5104533;27;1093;-51
2021/08/01 02:54:08;;;;;;;;;;;;;;;21.66;58.52;100369.13;5121715;27;1499;-47
2021/08/01 02:56:33;;;;;;;;;;;;;;;21.84;58.21;100367.25;5109933;27;1280;-50
2021/08/01 02:59:01;;;;;;;;;;;;;;;21.78;58.64;100372.06;5161251;27;804;-40
2021/08/01 03:01:29;;;;;;;;;;;;;;;21.69;59.26;100379.53;5142551;27;854;-52
2021/08/01 03:03:56;;;;;;;;;;;;;;;21.43;58.14;100374.63;5142324;27;1978;-51
2021/08/01 03:06:22;;;;;;;;;;;;;;;20.89;58.16;100374.59;5142322;27;1121;-50
2021/08/01 03:08:50;;;;;;;;;;;;;;;21.27;61.05;100378.94;5142412;27;939;-40
2021/08/01 03:11:20;;;;;;;;;;;;;;;21.76;60.67;100385.44;5144759;27;1403;-49
2021/08/01 03:13:46;;;;;;;;;;;;;;;21.96;59.64;100386.00;5144229;27;1529;-40
2021/08/01 03:16:12;;;;;;;;;;;;;;;22.12;59.01;100386.38;5144503;27;1395;-53
2021/08/01 03:18:38;;;;;;;;;;;;;;;21.66;60.72;100377.41;5181566;27;809;-50
2021/08/01 03:21:03;;;;;;;;;;;;;;;21.62;60.13;100381.94;5151137;27;1214;-53
2021/08/01 03:23:47;;;;;;;;;;;;;;;21.38;57.53;100377.56;5140247;27;1905;-51
2021/08/01 03:26:48;;;;;;;;;;;;;;;21.80;60.80;100383.66;5096533;28;1213;-51
2021/08/01 03:29:16;;;;;;;;;;;;;;;21.79;59.08;100378.44;5133315;27;1284;-49
2021/08/01 03:31:42;;;;;;;;;;;;;;;21.92;59.14;100380.28;5161811;27;1572;-42
2021/08/01 03:34:08;;;;;;;;;;;;;;;21.94;59.17;100380.78;5144134;27;1101;-41
2021/08/01 03:36:33;;;;;;;;;;;;;;;21.65;58.74;100376.56;5160383;27;758;-43
2021/08/01 03:39:05;;;;;;;;;;;;;;;21.40;57.05;100366.97;5160668;27;746;-54
2021/08/01 03:41:30;;;;;;;;;;;;;;;20.66;56.26;100354.38;5160115;27;921;-49
2021/08/01 03:43:56;;;;;;;;;;;;;;;20.45;57.68;100354.81;5159837;27;1910;-41
2021/08/01 03:46:21;;;;;;;;;;;;;;;20.96;55.76;100363.91;5160022;27;767;-41
2021/08/01 03:48:47;;;;;;;;;;;;;;;20.99;56.08;100359.72;5159859;27;826;-44
2021/08/01 03:51:12;;;;;;;;;;;;;;;21.48;55.22;100355.16;5160105;27;800;-42
2021/08/01 03:53:37;;;;;;;;;;;;;;;21.41;55.98;100357.56;5166021;27;1430;-47
2021/08/01 03:56:03;;;;;;;;;;;;;;;21.60;56.10;100359.31;5165605;27;1612;-55
2021/08/01 03:58:29;;;;;;;;;;;;;;;21.75;55.84;100369.94;5163225;27;1429;-42
2021/08/01 04:00:54;;;;;;;;;;;;;;;21.75;56.21;100386.56;5160134;27;1283;-50
2021/08/01 04:03:19;;;;;;;;;;;;;;;21.46;57.20;100401.69;5165781;27;1909;-41
2021/08/01 04:05:45;;;;;;;;;;;;;;;21.40;57.37;100391.06;5149271;27;1355;-58
2021/08/01 04:08:13;;;;;;;;;;;;;;;21.05;56.47;100379.75;5140875;27;1338;-53
2021/08/01 04:10:39;;;;;;;;;;;;;;;21.00;58.60;100395.34;5144313;27;1295;-42
2021/08/01 04:13:04;;;;;;;;;;;;;;;21.29;59.22;100405.13;5140732;27;873;-41
2021/08/01 04:15:30;;;;;;;;;;;;;;;21.62;58.62;100407.66;5138737;27;811;-41
2021/08/01 04:17:55;;;;;;;;;;;;;;;21.94;57.89;100407.66;5137496;27;1254;-41
2021/08/01 04:20:21;;;;;;;;;;;;;;;21.67;59.30;100415.84;5138326;27;809;-45
2021/08/01 04:22:46;;;;;;;;;;;;;;;21.61;60.49;100411.53;5137249;27;1913;-57
2021/08/01 04:25:11;;;;;;;;;;;;;;;21.46;59.13;100385.09;5136806;27;1221;-53
2021/08/01 04:27:37;;;;;;;;;;;;;;;21.05;57.44;100402.69;5138087;27;1035;-51
2021/08/01 04:30:03;;;;;;;;;;;;;;;21.29;60.49;100396.03;5138713;27;890;-42
2021/08/01 04:32:28;;;;;;;;;;;;;;;21.53;61.59;100399.31;5138156;27;866;-42
2021/08/01 04:34:54;;;;;;;;;;;;;;;21.77;60.87;100406.44;5138109;27;834;-45
2021/08/01 04:37:19;;;;;;;;;;;;;;;21.73;61.25;100405.44;5138394;27;862;-42
2021/08/01 04:39:45;;;;;;;;;;;;;;;21.53;61.74;100404.84;5138187;27;830;-42
2021/08/01 04:42:10;;;;;;;;;;;;;;;21.64;60.81;100407.34;5137606;27;1913;-50
2021/08/01 04:44:36;;;;;;;;;;;;;;;21.28;59.38;100406.28;5138091;27;771;-41
2021/08/01 04:47:01;;;;;;;;;;;;;;;21.20;57.70;100402.31;5137594;27;787;-41
2021/08/01 04:49:27;;;;;;;;;;;;;;;21.42;60.37;100397.91;5138692;27;735;-42
2021/08/01 04:51:52;;;;;;;;;;;;;;;21.73;61.85;100404.59;5138171;27;842;-47
2021/08/01 04:54:17;;;;;;;;;;;;;;;21.81;61.87;100404.69;5138027;27;759;-47
2021/08/01 04:56:46;;;;;;;;;;;;;;;21.82;61.69;100400.75;5137384;27;969;-40
2021/08/01 04:59:11;;;;;;;;;;;;;;;21.75;61.74;100411.47;5137471;27;750;-46
2021/08/01 05:01:37;;;;;;;;;;;;;;;21.75;62.00;100411.47;5138172;27;796;-41
2021/08/01 05:04:02;;;;;;;;;;;;;;;21.57;58.97;100415.28;5138036;27;1914;-41
2021/08/01 05:06:28;;;;;;;;;;;;;;;20.91;57.79;100415.75;5151727;27;1054;-41
2021/08/01 05:08:53;;;;;;;;;;;;;;;21.50;60.68;100410.16;5158935;27;751;-41
2021/08/01 05:11:19;;;;;;;;;;;;;;;21.75;62.37;100410.66;5158168;27;1031;-41
2021/08/01 05:13:44;;;;;;;;;;;;;;;21.87;61.11;100413.66;5158001;27;754;-41
2021/08/01 05:16:18;;;;;;;;;;;;;;;21.96;61.00;100416.44;5158525;27;746;-42
2021/08/01 05:18:44;;;;;;;;;;;;;;;21.66;62.09;100411.41;5158301;27;802;-42
2021/08/01 05:21:10;;;;;;;;;;;;;;;21.65;62.31;100407.00;5158100;27;818;-47
2021/08/01 05:23:35;;;;;;;;;;;;;;;21.53;60.03;100407.63;5158284;27;1918;-40
2021/08/01 05:26:01;;;;;;;;;;;;;;;21.24;57.98;100419.09;5157585;27;937;-50
2021/08/01 05:28:26;;;;;;;;;;;;;;;21.43;59.87;100413.34;5157997;27;992;-40
2021/08/01 05:30:52;;;;;;;;;;;;;;;21.77;61.78;100420.28;5157904;27;803;-54
2021/08/01 05:33:17;;;;;;;;;;;;;;;21.85;62.99;100441.66;5158174;27;828;-55
2021/08/01 05:35:43;;;;;;;;;;;;;;;22.18;61.96;100429.41;5158252;27;751;-41
2021/08/01 05:38:08;;;;;;;;;;;;;;;22.27;61.42;100433.00;5157936;27;755;-52
2021/08/01 05:40:34;;;;;;;;;;;;;;;22.01;61.99;100436.50;5157762;27;806;-47
2021/08/01 05:42:59;;;;;;;;;;;;;;;21.90;62.73;100435.16;5157417;27;1905;-41
2021/08/01 05:45:26;;;;;;;;;;;;;;;21.79;61.23;100429.06;5157978;27;881;-44
2021/08/01 05:47:53;;;;;;;;;;;;;;;21.11;56.99;100426.31;5139040;27;1108;-41
2021/08/01 05:50:19;;;;;;;;;;;;;;;21.19;58.98;100428.31;5158344;27;800;-42
2021/08/01 05:52:44;;;;;;;;;;;;;;;21.43;59.41;100432.72;5158130;27;778;-41
2021/08/01 05:55:10;;;;;;;;;;;;;;;21.25;58.91;100425.44;5157861;27;844;-42
2021/08/01 05:57:35;;;;;;;;;;;;;;;21.32;56.18;100426.66;5157605;27;961;-41
2021/08/01 06:00:01;;;;;;;;;;;;;;;21.04;55.02;100434.22;5157775;27;778;-44
2021/08/01 06:02:26;;;;;;;;;;;;;;;21.23;53.22;100427.72;5157586;27;1909;-47
2021/08/01 06:04:52;;;;;;;;;;;;;;;21.13;52.43;100426.81;5157605;27;994;-50
2021/08/01 06:07:17;;;;;;;;;;;;;;;21.01;52.36;100432.06;5157468;27;817;-42
2021/08/01 06:09:43;;;;;;;;;;;;;;;20.97;52.14;100436.59;5157671;27;810;-53
2021/08/01 06:12:10;;;;;;;;;;;;;;;20.79;51.77;100432.84;5157130;27;1028;-42
2021/08/01 06:14:36;;;;;;;;;;;;;;;20.68;51.89;100441.38;5157639;27;775;-53
2021/08/01 06:17:02;;;;;;;;;;;;;;;20.81;52.29;100441.66;5157354;27;801;-54
2021/08/01 06:19:27;;;;;;;;;;;;;;;21.00;53.06;100438.75;5139303;27;1213;-42
2021/08/01 06:21:52;;;;;;;;;;;;;;;21.17;54.75;100436.13;5157731;27;731;-41
2021/08/01 06:24:18;;;;;;;;;;;;;;;21.39;56.44;100439.19;5157737;27;1913;-41
2021/08/01 06:26:43;;;;;;;;;;;;;;;21.45;57.91;100441.53;5157385;27;1012;-41
2021/08/01 06:29:09;;;;;;;;;;;;;;;21.54;59.26;100444.38;5157439;27;771;-42
2021/08/01 06:31:34;;;;;;;;;;;;;;;21.60;59.24;100434.00;5157660;27;822;-42
2021/08/01 06:34:00;;;;;;;;;;;;;;;21.13;57.28;100445.38;5157553;27;794;-43
2021/08/01 06:36:25;;;;;;;;;;;;;;;21.31;59.84;100441.59;5138389;27;1180;-54
2021/08/01 06:38:51;;;;;;;;;;;;;;;21.66;62.16;100452.13;5157267;27;813;-53
2021/08/01 06:41:16;;;;;;;;;;;;;;;21.94;62.44;100449.19;5157126;27;981;-50
2021/08/01 06:43:41;;;;;;;;;;;;;;;22.01;62.47;100452.31;5139045;27;1901;-41
2021/08/01 06:46:07;;;;;;;;;;;;;;;22.00;62.85;100454.25;5161439;27;774;-41
2021/08/01 06:48:34;;;;;;;;;;;;;;;22.03;61.59;100455.56;5142829;27;925;-41
2021/08/01 06:51:02;;;;;;;;;;;;;;;21.30;57.71;100451.00;5160886;27;715;-41
2021/08/01 06:53:27;;;;;;;;;;;;;;;20.65;58.15;100447.50;5161079;27;754;-52
2021/08/01 06:55:53;;;;;;;;;;;;;;;20.54;57.89;100457.13;5160830;27;830;-54
2021/08/01 06:58:18;;;;;;;;;;;;;;;20.50;54.94;100445.88;5160394;27;953;-45
2021/08/01 07:00:47;;;;;;;;;;;;;;;20.57;54.05;100450.97;5160875;27;814;-41
2021/08/01 07:03:13;;;;;;;;;;;;;;;20.55;53.66;100446.88;5160918;27;1960;-42
2021/08/01 07:05:38;;;;;;;;;;;;;;;20.79;53.60;100447.50;5160676;27;1146;-46
2021/08/01 07:08:04;;;;;;;;;;;;;;;20.88;54.47;100441.25;5160969;27;786;-42
2021/08/01 07:10:29;;;;;;;;;;;;;;;21.32;55.21;100451.53;5160429;27;735;-41
2021/08/01 07:12:55;;;;;;;;;;;;;;;21.49;57.16;100447.22;5160750;27;960;-41
2021/08/01 07:15:24;;;;;;;;;;;;;;;21.43;59.07;100446.53;5160843;27;834;-41
2021/08/01 07:17:49;;;;;;;;;;;;;;;21.58;59.86;100447.34;5160859;27;790;-42
2021/08/01 07:20:15;;;;;;;;;;;;;;;21.38;59.33;100449.47;5142082;27;1222;-42
2021/08/01 07:22:40;;;;;;;;;;;;;;;20.97;57.64;100447.66;5160861;27;1980;-42
2021/08/01 07:25:06;;;;;;;;;;;;;;;21.29;60.84;100454.09;5160281;27;803;-41
2021/08/01 07:27:31;;;;;;;;;;;;;;;21.58;62.83;100442.63;5141079;27;961;-41
2021/08/01 07:29:57;;;;;;;;;;;;;;;21.96;62.83;100444.13;5160563;27;788;-53
2021/08/01 07:32:22;;;;;;;;;;;;;;;21.93;63.03;100442.81;5160125;27;807;-41
2021/08/01 07:34:48;;;;;;;;;;;;;;;22.05;62.62;100448.56;5160343;27;783;-50
2021/08/01 07:37:14;;;;;;;;;;;;;;;21.72;61.75;100441.72;5160558;27;790;-53
2021/08/01 07:39:39;;;;;;;;;;;;;;;21.10;56.54;100446.00;5160121;27;787;-51
2021/08/01 07:42:05;;;;;;;;;;;;;;;21.08;57.25;100443.50;5159664;27;1111;-41
2021/08/01 07:44:34;;;;;;;;;;;;;;;20.75;58.12;100445.66;5160135;27;1922;-41
2021/08/01 07:47:00;;;;;;;;;;;;;;;20.88;55.58;100444.00;5159609;27;806;-41
2021/08/01 07:49:25;;;;;;;;;;;;;;;20.81;54.63;100445.22;5159944;27;746;-42
2021/08/01 07:51:51;;;;;;;;;;;;;;;20.83;53.45;100440.22;5159992;27;731;-41
2021/08/01 07:54:16;;;;;;;;;;;;;;;20.94;52.33;100448.28;5159415;27;743;-41
2021/08/01 07:56:42;;;;;;;;;;;;;;;20.84;52.33;100439.06;5158776;27;1009;-41
2021/08/01 07:59:07;;;;;;;;;;;;;;;20.87;52.46;100437.63;5159658;27;746;-48
2021/08/01 08:01:32;;;;;;;;;;;;;;;21.02;53.27;100442.00;5159767;27;770;-49
2021/08/01 08:03:58;;;;;;;;;;;;;;;21.01;54.82;100443.13;5140565;27;2048;-40
2021/08/01 08:06:23;;;;;;;;;;;;;;;21.39;56.59;100441.97;5159521;27;1153;-41
2021/08/01 08:08:49;;;;;;;;;;;;;;;21.67;57.50;100448.19;5159385;27;823;-46
2021/08/01 08:11:14;;;;;;;;;;;;;;;21.59;59.37;100443.44;5159310;27;964;-46
2021/08/01 08:13:39;;;;;;;;;;;;;;;21.64;59.26;100448.84;5159276;27;751;-49
2021/08/01 08:16:05;;;;;;;;;;;;;;;21.24;57.28;100440.38;5159776;27;818;-42
2021/08/01 08:18:30;;;;;;;;;;;;;;;21.04;59.04;100442.50;5159491;27;762;-42
2021/08/01 08:20:56;;;;;;;;;;;;;;;21.41;62.09;100446.06;5158961;27;977;-54
2021/08/01 08:23:23;;;;;;;;;;;;;;;21.76;62.63;100435.25;5159302;27;1921;-42
2021/08/01 08:25:49;;;;;;;;;;;;;;;22.01;62.12;100442.03;5159155;27;790;-43
2021/08/01 08:28:14;;;;;;;;;;;;;;;21.98;62.42;100448.22;5159376;27;1043;-41
2021/08/01 08:30:40;;;;;;;;;;;;;;;21.71;62.66;100443.66;5159313;27;753;-42
2021/08/01 08:33:06;;;;;;;;;;;;;;;21.10;58.08;100440.47;5159486;27;801;-41
2021/08/01 08:35:31;;;;;;;;;;;;;;;21.00;58.82;100444.28;5158940;27;798;-49
2021/08/01 08:37:58;;;;;;;;;;;;;;;21.14;59.54;100447.81;5159180;27;739;-41
2021/08/01 08:40:23;;;;;;;;;;;;;;;21.35;57.61;100437.06;5158524;27;761;-42
2021/08/01 08:42:49;;;;;;;;;;;;;;;21.22;55.97;100437.94;5158402;27;1988;-46
2021/08/01 08:45:15;;;;;;;;;;;;;;;21.11;54.68;100444.84;5159062;27;742;-41
2021/08/01 08:47:44;;;;;;;;;;;;;;;20.79;54.25;100447.50;5159097;27;770;-41
2021/08/01 08:50:11;;;;;;;;;;;;;;;20.74;53.76;100439.31;5158793;27;818;-41
2021/08/01 08:52:36;;;;;;;;;;;;;;;20.77;53.46;100429.59;5139956;27;1152;-42
2021/08/01 08:55:02;;;;;;;;;;;;;;;21.04;52.16;100431.44;5139496;27;887;-45
2021/08/01 08:57:29;;;;;;;;;;;;;;;20.84;52.02;100439.06;5139810;27;961;-41
2021/08/01 09:00:15;;;;;;;;;;;;;;;20.77;51.74;100438.69;5159216;27;746;-42
2021/08/01 09:02:41;;;;;;;;;;;;;;;20.66;51.94;100427.03;5158531;27;1987;-41
2021/08/01 09:05:07;;;;;;;;;;;;;;;20.62;52.77;100419.66;5157990;27;1056;-46
2021/08/01 09:07:33;;;;;;;;;;;;;;;20.88;53.85;100422.69;5158618;27;817;-40
2021/08/01 09:09:58;;;;;;;;;;;;;;;21.28;56.14;100419.28;5158150;27;867;-42
2021/08/01 09:12:24;;;;;;;;;;;;;;;21.49;58.50;100414.88;5158303;27;961;-46
2021/08/01 09:15:07;;;;;;;;;;;;;;;21.77;60.26;100424.97;5158447;27;838;-45
2021/08/01 09:17:32;;;;;;;;;;;;;;;21.75;60.25;100422.53;5158235;27;899;-40
2021/08/01 09:20:10;;;;;;;;;;;;;;;21.24;58.54;100412.72;5158525;27;775;-46
2021/08/01 09:22:35;;;;;;;;;;;;;;;21.09;58.10;100414.75;5158215;27;1975;-41
2021/08/01 09:25:01;;;;;;;;;;;;;;;21.79;61.39;100425.50;5158148;27;751;-44
2021/08/01 09:27:26;;;;;;;;;;;;;;;22.00;63.50;100412.72;5158483;27;1028;-40
2021/08/01 09:29:52;;;;;;;;;;;;;;;22.12;64.83;100411.28;5157916;27;799;-52
2021/08/01 09:32:19;;;;;;;;;;;;;;;21.90;66.46;100412.19;5157826;27;786;-46
2021/08/01 09:34:47;;;;;;;;;;;;;;;21.86;64.52;100417.53;5158253;27;822;-39
2021/08/01 09:37:13;;;;;;;;;;;;;;;21.26;57.81;100410.50;5158078;27;771;-47
2021/08/01 09:39:42;;;;;;;;;;;;;;;20.84;57.13;100411.44;5157860;27;823;-48
2021/08/01 09:42:07;;;;;;;;;;;;;;;20.87;57.75;100411.97;5138642;27;1072;-38
2021/08/01 09:44:35;;;;;;;;;;;;;;;20.47;57.94;100410.59;5157618;27;1906;-39
2021/08/01 09:47:00;;;;;;;;;;;;;;;20.68;56.34;100415.69;5139438;27;1121;-40
2021/08/01 09:49:28;;;;;;;;;;;;;;;20.57;54.99;100400.44;5139225;27;903;-51
2021/08/01 09:51:55;;;;;;;;;;;;;;;20.54;54.15;100395.53;5157791;27;763;-53
2021/08/01 09:54:21;;;;;;;;;;;;;;;20.78;52.93;100407.16;5157972;27;787;-40
2021/08/01 09:56:56;;;;;;;;;;;;;;;20.79;52.49;100403.28;5156880;27;890;-41
2021/08/01 09:59:23;;;;;;;;;;;;;;;20.70;52.32;100407.91;5141125;27;922;-43
2021/08/01 10:01:55;;;;;;;;;;;;;;;20.63;53.11;100410.25;5136823;28;763;-46
2021/08/01 10:04:21;;;;;;;;;;;;;;;20.89;53.84;100405.00;5137096;28;1980;-45
2021/08/01 10:06:57;;;;;;;;;;;;;;;21.14;54.70;100400.81;5136760;28;1173;-41
2021/08/01 10:09:26;;;;;;;;;;;;;;;21.52;56.70;100397.66;5136836;28;751;-52
2021/08/01 10:11:53;;;;;;;;;;;;;;;21.57;58.08;100395.91;5136303;28;965;-54
2021/08/01 10:14:18;;;;;;;;;;;;;;;21.48;60.02;100396.63;5136799;28;826;-41
2021/08/01 10:16:44;;;;;;;;;;;;;;;21.47;58.84;100388.66;5118754;28;791;-41
2021/08/01 10:19:09;;;;;;;;;;;;;;;21.15;57.23;100385.88;5139660;27;922;-45
2021/08/01 10:21:35;;;;;;;;;;;;;;;21.42;60.84;100392.38;5140433;27;739;-40
2021/08/01 10:24:00;;;;;;;;;;;;;;;21.72;62.58;100395.50;5140879;27;1982;-39
2021/08/01 10:26:29;;;;;;;;;;;;;;;22.07;62.25;100395.66;5140480;27;1012;-40
2021/08/01 10:28:55;;;;;;;;;;;;;;;21.91;62.84;100402.75;5121640;27;871;-47
2021/08/01 10:31:24;;;;;;;;;;;;;;;21.96;62.65;100399.84;5121676;27;935;-40
2021/08/01 10:33:56;;;;;;;;;;;;;;;21.33;59.07;100389.53;5121845;27;888;-44
2021/08/01 10:36:24;;;;;;;;;;;;;;;20.84;57.69;100383.81;5122160;27;828;-46
2021/08/01 10:38:49;;;;;;;;;;;;;;;20.68;59.61;100397.16;5140642;27;818;-50
2021/08/01 10:41:15;;;;;;;;;;;;;;;20.80;58.79;100387.50;5121065;27;946;-42
2021/08/01 10:43:41;;;;;;;;;;;;;;;20.97;56.47;100386.84;5122130;27;1913;-41
2021/08/01 10:46:07;;;;;;;;;;;;;;;21.00;55.06;100386.25;5140636;27;830;-41
2021/08/01 10:48:32;;;;;;;;;;;;;;;21.10;53.69;100385.16;5121711;27;763;-41
2021/08/01 10:50:58;;;;;;;;;;;;;;;21.01;53.34;100376.78;5121716;27;887;-42
2021/08/01 10:53:23;;;;;;;;;;;;;;;20.97;52.79;100375.78;5140368;27;766;-51
2021/08/01 10:55:52;;;;;;;;;;;;;;;21.17;51.88;100369.75;5140689;27;747;-41
2021/08/01 10:58:18;;;;;;;;;;;;;;;21.00;51.91;100380.72;5139963;27;1001;-41
2021/08/01 11:00:55;;;;;;;;;;;;;;;21.03;51.96;100382.84;5140033;27;782;-50
2021/08/01 11:03:21;;;;;;;;;;;;;;;21.18;53.39;100376.94;5139836;27;1913;-54
2021/08/01 11:05:46;;;;;;;;;;;;;;;21.45;55.79;100383.44;5148795;27;1112;-49
2021/08/01 11:08:12;;;;;;;;;;;;;;;21.63;58.03;100375.25;5161237;27;789;-53
2021/08/01 11:10:38;;;;;;;;;;;;;;;21.54;60.76;100375.22;5160921;27;771;-54
2021/08/01 11:13:22;;;;;;;;;;;;;;;21.56;60.74;100380.44;5160010;27;1036;-43
2021/08/01 11:15:48;;;;;;;;;;;;;;;21.38;57.73;100369.25;5161094;27;774;-41
2021/08/01 11:18:13;;;;;;;;;;;;;;;21.03;57.41;100369.81;5160378;27;875;-41
2021/08/01 11:20:42;;;;;;;;;;;;;;;21.66;61.56;100363.59;5141869;27;807;-41
2021/08/01 11:23:07;;;;;;;;;;;;;;;22.04;63.67;100371.38;5160267;27;1902;-40
2021/08/01 11:25:33;;;;;;;;;;;;;;;22.16;65.27;100360.50;5160493;27;853;-50
2021/08/01 11:28:08;;;;;;;;;;;;;;;22.01;67.07;100374.78;5159844;27;925;-47
2021/08/01 11:31:02;;;;;;;;;;;;;;;22.03;62.64;100372.50;5159982;27;521;-41
2021/08/01 11:33:40;;;;;;;;;;;;;;;20.90;56.94;100369.88;5142156;27;1425;-41
2021/08/01 11:36:11;;;;;;;;;;;;;;;21.10;58.17;100368.59;5160461;27;791;-42
2021/08/01 11:38:37;;;;;;;;;;;;;;;21.14;57.25;100370.41;5160256;27;1549;-53
2021/08/01 11:41:03;;;;;;;;;;;;;;;21.05;56.71;100366.75;5159609;27;921;-41
2021/08/01 11:43:28;;;;;;;;;;;;;;;21.07;56.25;100370.03;5141708;27;1914;-47
2021/08/01 11:45:57;;;;;;;;;;;;;;;21.37;55.50;100364.84;5159979;27;845;-40
2021/08/01 11:48:22;;;;;;;;;;;;;;;21.35;56.31;100361.59;5160167;27;775;-49
2021/08/01 11:50:48;;;;;;;;;;;;;;;21.51;56.23;100357.28;5160005;27;747;-50
2021/08/01 11:53:13;;;;;;;;;;;;;;;21.42;57.00;100358.34;5140494;27;775;-40
2021/08/01 11:55:39;;;;;;;;;;;;;;;21.45;57.21;100357.75;5141164;27;1020;-48
2021/08/01 11:58:04;;;;;;;;;;;;;;;21.47;57.28;100345.19;5140928;27;1318;-41
2021/08/01 12:00:30;;;;;;;;;;;;;;;21.35;56.85;100356.06;5141485;27;755;-41
2021/08/01 12:02:56;;;;;;;;;;;;;;;20.76;56.09;100354.19;5140689;27;1909;-41
2021/08/01 12:05:21;;;;;;;;;;;;;;;21.05;59.70;100349.34;5159949;27;1224;-40
2021/08/01 12:07:52;;;;;;;;;;;;;;;21.19;59.48;100350.09;5160271;27;795;-40
2021/08/01 12:10:21;;;;;;;;;;;;;;;21.50;58.35;100355.66;5160091;27;797;-40
2021/08/01 12:12:47;;;;;;;;;;;;;;;21.75;57.85;100355.31;5159162;27;1016;-40
2021/08/01 12:15:13;;;;;;;;;;;;;;;21.53;58.81;100346.75;5140498;27;902;-40
2021/08/01 12:17:38;;;;;;;;;;;;;;;21.68;58.61;100339.97;5159348;27;747;-40
2021/08/01 12:20:04;;;;;;;;;;;;;;;21.26;56.99;100344.13;5159368;27;787;-49
2021/08/01 12:22:30;;;;;;;;;;;;;;;20.97;59.18;100342.63;5159299;27;1988;-40
2021/08/01 12:24:56;;;;;;;;;;;;;;;21.20;60.82;100347.00;5159244;27;782;-47
2021/08/01 12:27:25;;;;;;;;;;;;;;;21.56;59.62;100352.78;5158736;27;981;-43
2021/08/01 12:29:55;;;;;;;;;;;;;;;21.67;59.14;100348.59;5139994;27;1154;-41
2021/08/01 12:32:39;;;;;;;;;;;;;;;21.71;59.01;100352.34;5159073;27;874;-43
2021/08/01 12:35:06;;;;;;;;;;;;;;;21.70;58.63;100351.53;5139906;27;1179;-52
2021/08/01 12:37:39;;;;;;;;;;;;;;;21.07;57.06;100342.38;5159251;27;829;-50
2021/08/01 12:40:04;;;;;;;;;;;;;;;20.99;58.22;100343.94;5159256;27;768;-40
2021/08/01 12:42:30;;;;;;;;;;;;;;;21.32;60.39;100343.69;5157936;27;2036;-40
2021/08/01 12:44:55;;;;;;;;;;;;;;;21.40;60.92;100344.84;5158593;27;813;-40
2021/08/01 12:47:21;;;;;;;;;;;;;;;21.63;59.88;100351.19;5159047;27;790;-41
2021/08/01 12:49:46;;;;;;;;;;;;;;;21.59;59.65;100350.19;5158600;27;821;-42
2021/08/01 12:52:16;;;;;;;;;;;;;;;21.48;59.90;100352.38;5158908;27;799;-40
2021/08/01 12:54:42;;;;;;;;;;;;;;;21.67;58.51;100351.34;5140139;27;537;-53